Paris, France

13:01 CET le 21 novembre 2014 (GMT +0100)
Charles de Gaulle | Change Station
CLOSE
Current Station
Aéroport
Location: Paris / Charles De Gaulle,
Altitude: 367 ft
Stations météo à proximité

Alt. 367 ft 49.02 °N, 2.53 °E | Updated 31 minutes ago

Mostly Cloudy
Nuageux
48 ° F
Paraît 48 ° F
N
6
Vent Variable Vent de ESE

Aujourd'hui
Haut(e) -- | Bas -- ° F
--% Risque de précip.
Hier
Haut(e) -- | Bas -- ° F
Precip. -- pouce
8:08 AM 5:02 PM
Lune descendante, 1% visible
Pression 30.06 pouce
Visibilité 4.3 Miles terrestres
Nuages Nuages épars 800 ft
Nuageux 8400 ft
Point de rosée 45 ° F
Humidité 87%
Précipitations 0.00 pouce
Profondeur de la couche neigeuse Non disponible.
UV 1 sur 12
Pollen Non disponible.
Qualité de l'air Non disponible.
Flu Activity Non disponible.
METAR LFPG 211130Z 11005KT 080V150 7000 SCT008 BKN084 09/07 Q1018 NOSIG

More Conditions Fewer Conditions

Pression 30.06 pouce
Visibilité 4.3 Miles terrestres
Nuages Nuages épars 800 ft
Nuageux 8400 ft
Point de rosée 45 ° F
Humidité 87%
Précipitations 0.00 pouce
Profondeur de la couche neigeuse Non disponible.
UV 1 sur 12
Pollen Non disponible.
Qualité de l'air Non disponible.
Flu Activity Non disponible.
METAR LFPG 211130Z 11005KT 080V150 7000 SCT008 BKN084 09/07 Q1018 NOSIG

More Conditions Fewer Conditions

10-Day Weather Forecast

Almanac

Astronomie

Nov. 21, 2014 Lever Coucher
Temps réel
Crépuscule civil
Crépuscule nautique
Crépuscule astronomique
Lune
Durée de lumière visible
Longueur du jour
Tomorrow will be .
, % of the Moon is Illuminated

Extrêmes aujourd'hui

Country Highs Country Lows

Community

WunderPhotos

Upload Photos

1,772,646 Photos téléchargées !

WunderBlogs® & News

Nearby

Qualité de l'air

  Qualité de l'air Indice de la qualité de l'air Polluant
Not available.

Épaisseur de neige

Station Depth Altitude

Activité sismique

Ville Distance Mag. Time & Date
Minimum magnitude displayed is 2.5.

Températures des eaux côtières

Lieu Température

Stations météo à proximité